Albers, Illinois
Current Conditions -  °F | °C
As of 2:58 PM on Friday 19 Dec 2014 (Local Time) from KBLV Reporting Station
Overcast Overcast  
Wind Chill:   Ceiling: 6000
Heat Index:   Visibility: 10mi
Dew Point: -2°   Wind: 5mph
Humidity: 77%   Direction: 40°NE
Pressure: 30.27"   Gusts: NA
Location:  38.54°N, 89.61°W
Report Text: KBLV 192058Z AUTO 04004KT 10SM OVC060 02/M02 A3027 RMK AO2 SLP258 T00201016 58007 $
Loading
Personal Weather Stations






























Interactive Weather Map New forecast layout! Learn more

10-Day Weather Forecast

Advertisements
Track Severe Weather on mobile